Time;durP1;ratioP1;P1;durP2;ratioP2;P2;SDS_P1;SDS_P2;PMS_P1;PMS_P2;Temp;Humidity;BMP_temperature;BMP_pressure;BME280_temperature;BME280_humidity;BME280_pressure;Samples;Min_cycle;Max_cycle;Signal;HPM_P1;HPM_P2
2021/09/19 00:01:16;;;;;;;;;;;;;;;29.31;37.82;100359.00;5135397;28;830;-40
2021/09/19 00:03:42;;;;;;;;;;;;;;;29.24;37.78;100357.34;5136145;28;820;-40
2021/09/19 00:06:07;;;;;;;;;;;;;;;29.21;37.69;100364.03;5135469;27;962;-35
2021/09/19 00:08:33;;;;;;;;;;;;;;;29.32;37.87;100357.16;5136054;28;931;-38
2021/09/19 00:11:01;;;;;;;;;;;;;;;29.29;37.87;100353.00;5135813;28;879;-40
2021/09/19 00:13:26;;;;;;;;;;;;;;;29.34;38.14;100352.38;5135950;28;823;-41
2021/09/19 00:15:52;;;;;;;;;;;;;;;29.24;38.14;100360.06;5136066;28;743;-40
2021/09/19 00:18:17;;;;;;;;;;;;;;;29.20;38.38;100360.47;5136338;28;1956;-41
2021/09/19 00:20:43;;;;;;;;;;;;;;;29.32;38.29;100363.41;5136865;27;1584;-37
2021/09/19 00:23:08;;;;;;;;;;;;;;;29.20;38.40;100362.34;5141348;27;937;-42
2021/09/19 00:25:33;;;;;;;;;;;;;;;29.29;38.28;100354.84;5140113;27;771;-41
2021/09/19 00:27:58;;;;;;;;;;;;;;;29.26;38.58;100357.97;5139606;27;736;-41
2021/09/19 00:30:24;;;;;;;;;;;;;;;29.29;38.47;100363.84;5139386;27;783;-38
2021/09/19 00:32:49;;;;;;;;;;;;;;;29.33;38.15;100358.81;5139678;27;767;-35
2021/09/19 00:35:15;;;;;;;;;;;;;;;29.28;38.36;100351.31;5139896;27;755;-38
2021/09/19 00:37:40;;;;;;;;;;;;;;;29.31;38.31;100352.78;5147715;27;1897;-39
2021/09/19 00:40:05;;;;;;;;;;;;;;;29.39;38.14;100365.28;5160027;27;789;-34
2021/09/19 00:42:31;;;;;;;;;;;;;;;29.27;38.36;100367.78;5159936;27;1212;-40
2021/09/19 00:44:59;;;;;;;;;;;;;;;29.31;38.25;100361.72;5160340;27;842;-35
2021/09/19 00:47:25;;;;;;;;;;;;;;;29.32;38.26;100367.97;5159796;27;877;-37
2021/09/19 00:49:50;;;;;;;;;;;;;;;29.36;38.22;100379.25;5159901;27;1281;-35
2021/09/19 00:52:15;;;;;;;;;;;;;;;29.38;38.29;100383.41;5147800;27;960;-40
2021/09/19 00:54:40;;;;;;;;;;;;;;;29.36;38.07;100379.25;5139402;27;831;-40
2021/09/19 00:57:06;;;;;;;;;;;;;;;29.39;38.29;100376.13;5120537;27;961;-41
2021/09/19 00:59:31;;;;;;;;;;;;;;;29.44;38.32;100382.59;5139097;27;1910;-37
2021/09/19 01:01:57;;;;;;;;;;;;;;;29.36;38.68;100377.38;5120766;27;798;-40
2021/09/19 01:04:22;;;;;;;;;;;;;;;29.33;38.86;100385.91;5139629;27;815;-38
2021/09/19 01:06:47;;;;;;;;;;;;;;;29.29;38.67;100384.66;5138607;27;966;-39
2021/09/19 01:09:13;;;;;;;;;;;;;;;29.34;39.07;100390.28;5139159;27;862;-40
2021/09/19 01:11:38;;;;;;;;;;;;;;;29.33;38.97;100388.59;5139219;27;770;-35
2021/09/19 01:14:04;;;;;;;;;;;;;;;29.26;39.16;100385.06;5119900;27;820;-38
2021/09/19 01:16:29;;;;;;;;;;;;;;;29.32;39.11;100384.25;5120430;27;759;-40
2021/09/19 01:18:54;;;;;;;;;;;;;;;29.41;38.74;100374.84;5138812;27;1909;-35
2021/09/19 01:21:20;;;;;;;;;;;;;;;29.30;39.03;100372.78;5141149;27;1443;-36
2021/09/19 01:23:55;;;;;;;;;;;;;;;29.33;39.12;100370.47;5138867;27;775;-42
2021/09/19 01:26:21;;;;;;;;;;;;;;;29.30;38.97;100375.47;5138617;27;863;-40
2021/09/19 01:28:46;;;;;;;;;;;;;;;29.29;39.18;100381.94;5138565;27;838;-36
2021/09/19 01:31:11;;;;;;;;;;;;;;;29.31;38.96;100386.09;5138534;27;767;-40
2021/09/19 01:33:36;;;;;;;;;;;;;;;29.36;38.85;100381.97;5138575;27;755;-41
2021/09/19 01:36:06;;;;;;;;;;;;;;;29.32;39.08;100381.53;5137741;27;954;-29
2021/09/19 01:38:31;;;;;;;;;;;;;;;29.27;39.23;100379.44;5154366;27;1963;-41
2021/09/19 01:40:57;;;;;;;;;;;;;;;29.29;38.99;100376.53;5159301;27;781;-34
2021/09/19 01:43:22;;;;;;;;;;;;;;;29.31;38.99;100375.28;5158412;27;814;-38
2021/09/19 01:45:47;;;;;;;;;;;;;;;29.32;39.02;100373.41;5159573;27;862;-37
2021/09/19 01:48:12;;;;;;;;;;;;;;;29.31;39.19;100372.56;5158953;27;949;-38
2021/09/19 01:50:38;;;;;;;;;;;;;;;29.41;38.64;100364.00;5158893;27;1286;-34
2021/09/19 01:53:03;;;;;;;;;;;;;;;29.47;38.54;100356.94;5140436;27;973;-40
2021/09/19 01:55:29;;;;;;;;;;;;;;;29.40;38.82;100366.94;5138081;27;855;-35
2021/09/19 01:57:54;;;;;;;;;;;;;;;29.40;38.80;100358.81;5137726;27;1902;-35
2021/09/19 02:00:21;;;;;;;;;;;;;;;29.43;38.62;100364.66;5138371;27;901;-38
2021/09/19 02:02:46;;;;;;;;;;;;;;;29.26;39.19;100364.22;5138110;27;822;-35
2021/09/19 02:05:12;;;;;;;;;;;;;;;29.30;39.02;100365.47;5137569;27;834;-40
2021/09/19 02:07:37;;;;;;;;;;;;;;;29.38;38.78;100363.63;5137881;27;1017;-37
2021/09/19 02:10:04;;;;;;;;;;;;;;;29.34;38.71;100366.72;5137682;27;756;-35
2021/09/19 02:12:29;;;;;;;;;;;;;;;29.40;38.59;100367.78;5137653;27;900;-35
2021/09/19 02:14:54;;;;;;;;;;;;;;;29.33;38.73;100364.22;5137830;27;830;-41
2021/09/19 02:17:20;;;;;;;;;;;;;;;29.27;38.87;100373.19;5137330;27;1976;-38
2021/09/19 02:19:45;;;;;;;;;;;;;;;29.36;38.86;100365.69;5138018;27;855;-40
2021/09/19 02:22:11;;;;;;;;;;;;;;;29.38;38.76;100377.97;5139269;27;1624;-40
2021/09/19 02:24:36;;;;;;;;;;;;;;;29.31;39.10;100380.69;5137334;27;771;-39
2021/09/19 02:27:01;;;;;;;;;;;;;;;29.36;38.94;100384.66;5137636;27;851;-39
2021/09/19 02:29:27;;;;;;;;;;;;;;;29.35;38.97;100383.81;5137283;27;771;-40
2021/09/19 02:31:52;;;;;;;;;;;;;;;29.36;39.07;100379.25;5137580;27;759;-38
2021/09/19 02:34:17;;;;;;;;;;;;;;;29.33;39.25;100388.59;5137177;27;811;-39
2021/09/19 02:36:43;;;;;;;;;;;;;;;28.67;38.96;100285.38;5136886;27;934;-35
2021/09/19 02:39:08;;;;;;;;;;;;;;;29.38;39.05;100380.69;5158168;27;1925;-39
2021/09/19 02:41:34;;;;;;;;;;;;;;;29.39;39.00;100382.38;5158353;27;739;-39
2021/09/19 02:43:59;;;;;;;;;;;;;;;29.40;39.10;100391.31;5157229;27;861;-41
2021/09/19 02:46:24;;;;;;;;;;;;;;;29.25;39.41;100376.09;5157517;27;863;-36
2021/09/19 02:48:49;;;;;;;;;;;;;;;29.29;39.41;100371.97;5157728;27;1144;-38
2021/09/19 02:51:15;;;;;;;;;;;;;;;29.39;38.99;100373.41;5154567;27;984;-36
2021/09/19 02:53:40;;;;;;;;;;;;;;;29.29;39.40;100390.91;5137345;27;774;-34
2021/09/19 02:56:05;;;;;;;;;;;;;;;29.41;39.32;100395.72;5136641;27;750;-35
2021/09/19 02:58:30;;;;;;;;;;;;;;;29.37;39.41;100386.31;5136699;27;1909;-41
2021/09/19 03:00:56;;;;;;;;;;;;;;;29.36;39.21;100387.38;5136946;27;751;-41
2021/09/19 03:03:21;;;;;;;;;;;;;;;29.22;39.55;100384.66;5136962;27;823;-41
2021/09/19 03:05:46;;;;;;;;;;;;;;;29.38;39.36;100382.59;5136720;27;774;-42
2021/09/19 03:08:11;;;;;;;;;;;;;;;29.45;39.13;100380.69;5136098;27;950;-38
2021/09/19 03:10:37;;;;;;;;;;;;;;;29.27;39.60;100378.59;5136934;27;763;-41
2021/09/19 03:13:02;;;;;;;;;;;;;;;29.24;39.54;100371.75;5135857;27;874;-38
2021/09/19 03:15:28;;;;;;;;;;;;;;;27.97;35.88;100365.59;5136989;27;795;-42
2021/09/19 03:17:53;;;;;;;;;;;;;;;27.62;35.59;100355.56;5135792;27;1905;-34
2021/09/19 03:20:19;;;;;;;;;;;;;;;27.29;34.17;100353.41;5136437;27;800;-40
2021/09/19 03:22:44;;;;;;;;;;;;;;;27.10;34.47;100347.63;5139249;27;1804;-41
2021/09/19 03:25:10;;;;;;;;;;;;;;;27.08;34.56;100352.38;5136609;27;870;-42
2021/09/19 03:27:35;;;;;;;;;;;;;;;26.60;31.21;100356.38;5135634;27;802;-41
2021/09/19 03:30:00;;;;;;;;;;;;;;;25.85;31.64;100358.06;5136721;27;775;-35
2021/09/19 03:32:26;;;;;;;;;;;;;;;25.39;32.23;100356.28;5136556;27;815;-36
2021/09/19 03:34:51;;;;;;;;;;;;;;;25.22;32.34;100360.94;5136257;27;842;-37
2021/09/19 03:37:16;;;;;;;;;;;;;;;25.40;31.99;100363.31;5140892;27;1005;-36
2021/09/19 03:39:41;;;;;;;;;;;;;;;25.29;32.07;100360.03;5157060;27;1902;-40
2021/09/19 03:42:07;;;;;;;;;;;;;;;25.30;31.91;100364.41;5157272;27;878;-41
2021/09/19 03:44:32;;;;;;;;;;;;;;;25.06;32.54;100368.09;5157474;27;759;-36
2021/09/19 03:46:57;;;;;;;;;;;;;;;24.99;32.63;100367.16;5156862;27;822;-37
2021/09/19 03:49:24;;;;;;;;;;;;;;;24.98;32.51;100377.06;5156538;27;1042;-30
2021/09/19 03:51:49;;;;;;;;;;;;;;;25.07;32.66;100375.19;5154325;27;1374;-36
2021/09/19 03:54:14;;;;;;;;;;;;;;;25.01;33.14;100378.56;5166298;27;1303;-41
2021/09/19 03:56:40;;;;;;;;;;;;;;;25.63;33.91;100382.19;5164832;27;1442;-42
2021/09/19 03:59:05;;;;;;;;;;;;;;;26.15;33.28;100395.84;5171563;27;1929;-38
2021/09/19 04:01:30;;;;;;;;;;;;;;;26.55;33.04;100396.56;5170049;27;763;-36
2021/09/19 04:03:56;;;;;;;;;;;;;;;26.62;33.17;100398.34;5169026;27;1357;-32
2021/09/19 04:06:21;;;;;;;;;;;;;;;26.57;33.53;100398.09;5168076;27;850;-36
2021/09/19 04:08:46;;;;;;;;;;;;;;;26.76;33.11;100390.41;5161568;27;1413;-34
2021/09/19 04:11:11;;;;;;;;;;;;;;;26.90;32.96;100394.94;5177446;27;1517;-36
2021/09/19 04:13:37;;;;;;;;;;;;;;;26.97;33.38;100402.28;5167213;27;1484;-43
2021/09/19 04:16:02;;;;;;;;;;;;;;;27.08;33.36;100409.06;5172423;27;1248;-33
2021/09/19 04:18:27;;;;;;;;;;;;;;;27.57;33.42;100412.88;5170243;27;1909;-39
2021/09/19 04:20:53;;;;;;;;;;;;;;;27.61;32.47;100413.34;5176023;27;1436;-42
2021/09/19 04:23:18;;;;;;;;;;;;;;;27.63;32.69;100408.53;5166918;27;1193;-39
2021/09/19 04:25:43;;;;;;;;;;;;;;;27.71;32.68;100407.63;5169803;27;1382;-37
2021/09/19 04:28:08;;;;;;;;;;;;;;;27.68;32.65;100413.34;5164571;27;1414;-43
2021/09/19 04:30:34;;;;;;;;;;;;;;;27.62;33.14;100410.44;5165029;27;1254;-35
2021/09/19 04:32:59;;;;;;;;;;;;;;;27.69;32.97;100413.22;5164293;27;1338;-41
2021/09/19 04:35:24;;;;;;;;;;;;;;;26.95;32.64;100407.03;5169058;27;1394;-42
2021/09/19 04:37:50;;;;;;;;;;;;;;;24.75;38.34;100406.59;5157824;27;1963;-47
2021/09/19 04:40:15;;;;;;;;;;;;;;;24.24;39.80;100403.22;5164607;27;794;-41
2021/09/19 04:42:40;;;;;;;;;;;;;;;23.79;40.54;100414.34;5159430;27;943;-49
2021/09/19 04:45:06;;;;;;;;;;;;;;;23.60;41.07;100405.66;5161219;27;1553;-37
2021/09/19 04:47:31;;;;;;;;;;;;;;;23.36;41.52;100396.53;5173538;27;815;-37
2021/09/19 04:49:57;;;;;;;;;;;;;;;23.19;41.87;100414.44;5167818;27;1085;-36
2021/09/19 04:52:22;;;;;;;;;;;;;;;23.04;42.18;100416.94;5152994;27;1246;-40
2021/09/19 04:54:47;;;;;;;;;;;;;;;22.96;42.69;100423.13;5163582;27;1143;-43
2021/09/19 04:57:13;;;;;;;;;;;;;;;22.90;42.90;100417.56;5157793;27;825;-38
2021/09/19 04:59:38;;;;;;;;;;;;;;;23.15;42.01;100415.78;5159902;27;1907;-43
2021/09/19 05:02:03;;;;;;;;;;;;;;;23.16;41.52;100406.72;5172240;27;746;-39
2021/09/19 05:04:29;;;;;;;;;;;;;;;22.69;42.40;100405.44;5171085;27;1342;-40
2021/09/19 05:06:54;;;;;;;;;;;;;;;22.66;42.77;100416.47;5164294;27;1548;-36
2021/09/19 05:09:19;;;;;;;;;;;;;;;22.67;43.10;100412.78;5173598;27;1354;-37
2021/09/19 05:11:44;;;;;;;;;;;;;;;23.07;44.59;100413.09;5163152;27;1354;-45
2021/09/19 05:14:10;;;;;;;;;;;;;;;25.30;39.13;100412.03;5163407;27;1410;-35
2021/09/19 05:16:35;;;;;;;;;;;;;;;26.12;37.07;100422.31;5169283;27;1449;-43
2021/09/19 05:19:00;;;;;;;;;;;;;;;26.55;36.01;100426.25;5162621;27;1941;-45
2021/09/19 05:21:25;;;;;;;;;;;;;;;26.82;35.85;100437.41;5165741;27;1345;-44
2021/09/19 05:23:51;;;;;;;;;;;;;;;26.99;35.36;100430.75;5159734;27;1468;-40
2021/09/19 05:26:16;;;;;;;;;;;;;;;27.14;35.41;100436.13;5167441;27;1548;-38
2021/09/19 05:28:41;;;;;;;;;;;;;;;27.05;35.83;100422.94;5159516;27;1469;-47
2021/09/19 05:31:07;;;;;;;;;;;;;;;27.21;35.87;100422.69;5158242;27;763;-40
2021/09/19 05:33:32;;;;;;;;;;;;;;;27.35;36.15;100423.69;5163252;27;839;-39
2021/09/19 05:35:57;;;;;;;;;;;;;;;27.41;36.49;100422.06;5170709;27;1216;-37
2021/09/19 05:38:23;;;;;;;;;;;;;;;27.57;36.21;100420.13;5159882;27;1967;-32
2021/09/19 05:40:48;;;;;;;;;;;;;;;24.09;41.02;100422.72;5157861;27;809;-40
2021/09/19 05:43:13;;;;;;;;;;;;;;;22.18;45.83;100431.09;5178708;27;739;-35
2021/09/19 05:45:38;;;;;;;;;;;;;;;21.46;47.73;100416.78;5163061;27;1074;-39
2021/09/19 05:48:04;;;;;;;;;;;;;;;21.04;48.39;100423.53;5162653;27;826;-38
2021/09/19 05:50:29;;;;;;;;;;;;;;;20.78;48.71;100429.56;5116302;27;1188196;-40
2021/09/19 05:52:55;;;;;;;;;;;;;;;20.73;48.79;100434.50;5158292;27;1115;-37
2021/09/19 05:55:20;;;;;;;;;;;;;;;20.58;49.18;100434.13;5167978;27;751;-39
2021/09/19 05:57:45;;;;;;;;;;;;;;;20.58;49.44;100436.81;5158444;27;1995;-40
2021/09/19 06:00:11;;;;;;;;;;;;;;;20.31;49.90;100439.28;5161179;27;1559;-39
2021/09/19 06:02:36;;;;;;;;;;;;;;;20.25;50.11;100434.53;5175881;27;1326;-39
2021/09/19 06:05:02;;;;;;;;;;;;;;;20.29;50.15;100449.25;5161729;27;779;-37
2021/09/19 06:07:27;;;;;;;;;;;;;;;20.51;49.74;100439.22;5157940;27;969;-41
2021/09/19 06:09:52;;;;;;;;;;;;;;;20.32;49.83;100435.63;5158241;27;743;-34
2021/09/19 06:12:17;;;;;;;;;;;;;;;20.31;49.82;100441.97;5157096;27;1032;-41
2021/09/19 06:14:43;;;;;;;;;;;;;;;20.21;50.13;100438.47;5158673;27;857;-36
2021/09/19 06:17:08;;;;;;;;;;;;;;;20.11;50.16;100438.47;5157833;27;805;-40
2021/09/19 06:19:33;;;;;;;;;;;;;;;20.12;50.34;100448.19;5157639;27;1969;-45
2021/09/19 06:22:01;;;;;;;;;;;;;;;20.82;48.38;100449.63;5147689;27;1628;-40
2021/09/19 06:24:26;;;;;;;;;;;;;;;21.92;45.06;100450.66;5143684;27;1319;-36
2021/09/19 06:26:51;;;;;;;;;;;;;;;22.55;43.28;100450.59;5162693;27;1239;-35
2021/09/19 06:29:17;;;;;;;;;;;;;;;22.65;43.19;100455.00;5173358;27;1243;-36
2021/09/19 06:31:42;;;;;;;;;;;;;;;22.84;42.84;100448.53;5163123;27;1331;-35
2021/09/19 06:34:07;;;;;;;;;;;;;;;22.72;42.96;100451.50;5169009;27;1291;-41
2021/09/19 06:36:33;;;;;;;;;;;;;;;22.81;42.72;100448.88;5161201;27;818;-36
2021/09/19 06:38:58;;;;;;;;;;;;;;;22.70;43.20;100453.53;5160383;27;1976;-44
2021/09/19 06:41:23;;;;;;;;;;;;;;;21.77;44.41;100453.84;5179502;27;755;-43
2021/09/19 06:43:48;;;;;;;;;;;;;;;20.28;48.82;100450.25;5178575;27;747;-42
2021/09/19 06:46:14;;;;;;;;;;;;;;;19.83;50.53;100450.69;5172773;27;897;-38
2021/09/19 06:48:39;;;;;;;;;;;;;;;19.75;50.40;100455.06;5157768;27;1145;-33
2021/09/19 06:51:05;;;;;;;;;;;;;;;19.73;50.76;100457.88;5164808;27;1173;-33
2021/09/19 06:53:30;;;;;;;;;;;;;;;19.59;50.63;100464.47;5163252;27;1462;-40
2021/09/19 06:55:55;;;;;;;;;;;;;;;19.68;50.52;100452.13;5161971;27;1497;-29
2021/09/19 06:58:20;;;;;;;;;;;;;;;19.66;50.70;100462.94;5178342;27;1988;-41
2021/09/19 07:00:46;;;;;;;;;;;;;;;19.62;50.90;100463.38;5165514;27;849;-48
2021/09/19 07:03:11;;;;;;;;;;;;;;;19.63;50.79;100465.91;5156754;27;920;-43
2021/09/19 07:05:37;;;;;;;;;;;;;;;19.75;50.59;100468.41;5157468;27;778;-40
2021/09/19 07:08:02;;;;;;;;;;;;;;;19.66;50.78;100470.94;5156646;27;953;-36
2021/09/19 07:10:27;;;;;;;;;;;;;;;19.78;50.62;100473.47;5157077;27;815;-37
2021/09/19 07:12:53;;;;;;;;;;;;;;;19.72;51.01;100476.72;5157494;27;996;-32
2021/09/19 07:15:18;;;;;;;;;;;;;;;19.78;50.58;100473.47;5160906;27;1354;-42
2021/09/19 07:17:43;;;;;;;;;;;;;;;19.74;51.13;100464.03;5165361;27;1958;-43
2021/09/19 07:20:09;;;;;;;;;;;;;;;19.80;51.00;100471.50;5175222;27;1448;-33
2021/09/19 07:22:36;;;;;;;;;;;;;;;19.82;51.08;100464.19;5160397;27;1580;-40
2021/09/19 07:25:01;;;;;;;;;;;;;;;19.82;51.01;100462.38;5158740;27;1497;-42
2021/09/19 07:27:26;;;;;;;;;;;;;;;19.85;50.56;100458.59;5173932;27;811;-35
2021/09/19 07:29:52;;;;;;;;;;;;;;;19.93;51.01;100466.75;5163218;27;897;-38
2021/09/19 07:32:17;;;;;;;;;;;;;;;19.99;50.82;100459.97;5168116;27;944;-38
2021/09/19 07:34:42;;;;;;;;;;;;;;;20.01;50.69;100457.16;5163405;27;1243;-37
2021/09/19 07:37:08;;;;;;;;;;;;;;;19.98;50.57;100468.13;5164614;27;846;-40
2021/09/19 07:39:34;;;;;;;;;;;;;;;20.01;50.58;100483.84;5164606;27;1918;-35
2021/09/19 07:41:59;;;;;;;;;;;;;;;19.93;50.19;100482.75;5161284;27;1219;-34
2021/09/19 07:44:24;;;;;;;;;;;;;;;19.86;49.48;100476.28;5158943;27;1441;-33
2021/09/19 07:46:50;;;;;;;;;;;;;;;19.89;49.70;100476.00;5156350;27;747;-34
2021/09/19 07:49:19;;;;;;;;;;;;;;;19.66;50.21;100470.94;5177441;27;1245;-37
2021/09/19 07:51:44;;;;;;;;;;;;;;;19.81;49.80;100479.38;5158112;27;856;-41
2021/09/19 07:54:10;;;;;;;;;;;;;;;19.89;50.23;100476.00;5156119;27;863;-39
2021/09/19 07:56:35;;;;;;;;;;;;;;;20.06;50.09;100477.16;5156235;27;854;-36
2021/09/19 07:59:00;;;;;;;;;;;;;;;20.01;50.47;100471.34;5156815;27;1980;-42
2021/09/19 08:01:25;;;;;;;;;;;;;;;19.92;50.91;100470.38;5156729;27;771;-41
2021/09/19 08:03:51;;;;;;;;;;;;;;;19.74;51.51;100462.22;5157042;27;818;-41
2021/09/19 08:06:18;;;;;;;;;;;;;;;19.80;51.68;100469.66;5155975;27;929;-41
2021/09/19 08:08:43;;;;;;;;;;;;;;;19.61;52.13;100467.84;5155555;27;819;-33
2021/09/19 08:11:08;;;;;;;;;;;;;;;19.52;52.63;100464.19;5156667;27;807;-41
2021/09/19 08:13:33;;;;;;;;;;;;;;;19.56;52.37;100459.41;5157905;27;1496;-36
2021/09/19 08:15:59;;;;;;;;;;;;;;;19.58;52.03;100462.78;5165174;27;826;-35
2021/09/19 08:18:24;;;;;;;;;;;;;;;19.52;52.26;100458.03;5156444;27;2229;-39
2021/09/19 08:20:49;;;;;;;;;;;;;;;19.47;52.09;100462.94;5160048;27;1280;-33
2021/09/19 08:23:15;;;;;;;;;;;;;;;19.49;52.28;100458.28;5163618;27;1216;-32
2021/09/19 08:25:40;;;;;;;;;;;;;;;19.46;52.15;100462.06;5155776;27;1303;-37
2021/09/19 08:28:05;;;;;;;;;;;;;;;19.53;52.54;100462.38;5170710;27;1592;-32
2021/09/19 08:30:31;;;;;;;;;;;;;;;19.45;52.97;100461.22;5160451;27;1208;-39
2021/09/19 08:32:56;;;;;;;;;;;;;;;19.51;52.73;100454.50;5168032;27;1342;-38
2021/09/19 08:35:21;;;;;;;;;;;;;;;19.43;52.93;100468.53;5167902;27;1314;-31
2021/09/19 08:37:47;;;;;;;;;;;;;;;19.39;52.71;100459.13;5161752;27;1988;-34
2021/09/19 08:40:12;;;;;;;;;;;;;;;19.23;53.24;100467.66;5156651;27;803;-39
2021/09/19 08:42:38;;;;;;;;;;;;;;;19.36;52.86;100456.72;5172654;27;1516;-40
2021/09/19 08:45:04;;;;;;;;;;;;;;;19.36;52.88;100459.41;5162297;27;792;-32
2021/09/19 08:47:30;;;;;;;;;;;;;;;19.30;53.09;100450.09;5162315;27;1417;-40
2021/09/19 08:49:56;;;;;;;;;;;;;;;19.30;52.76;100462.63;5174366;27;1204;-39
2021/09/19 08:52:21;;;;;;;;;;;;;;;19.42;52.53;100457.97;5161268;27;1405;-40
2021/09/19 08:54:46;;;;;;;;;;;;;;;19.36;52.52;100470.06;5169494;27;1329;-40
2021/09/19 08:57:12;;;;;;;;;;;;;;;19.21;52.19;100449.13;5179410;27;1539;-36
2021/09/19 08:59:43;;;;;;;;;;;;;;;19.12;52.66;100465.09;5154416;27;1917;-41
2021/09/19 09:02:08;;;;;;;;;;;;;;;19.16;51.28;100447.84;5161915;27;1355;-41
2021/09/19 09:04:36;;;;;;;;;;;;;;;19.02;51.23;100436.53;5159864;27;789;-34
2021/09/19 09:07:01;;;;;;;;;;;;;;;19.02;51.19;100436.53;5159530;27;946;-41
2021/09/19 09:09:26;;;;;;;;;;;;;;;19.38;50.45;100433.44;5159482;27;803;-35
2021/09/19 09:12:04;;;;;;;;;;;;;;;19.36;50.57;100427.38;5159740;27;770;-39
2021/09/19 09:14:29;;;;;;;;;;;;;;;19.27;51.27;100437.06;5159613;27;773;-38
2021/09/19 09:17:11;;;;;;;;;;;;;;;19.27;51.83;100422.91;5159468;27;866;-39
2021/09/19 09:19:37;;;;;;;;;;;;;;;19.36;51.94;100426.53;5159401;27;1965;-40
2021/09/19 09:22:03;;;;;;;;;;;;;;;19.36;51.88;100426.53;5159125;27;1616;-39
2021/09/19 09:24:28;;;;;;;;;;;;;;;19.36;52.20;100423.88;5159654;27;779;-35
2021/09/19 09:26:53;;;;;;;;;;;;;;;19.36;51.94;100427.38;5159070;27;803;-38
2021/09/19 09:29:18;;;;;;;;;;;;;;;19.30;52.28;100422.63;5140180;27;835;-41
2021/09/19 09:31:45;;;;;;;;;;;;;;;19.36;52.56;100429.19;5159606;27;744;-42
2021/09/19 09:34:17;;;;;;;;;;;;;;;19.26;52.71;100430.03;5159590;27;846;-42
2021/09/19 09:36:55;;;;;;;;;;;;;;;19.26;53.15;100426.53;5158205;27;953;-42
2021/09/19 09:39:22;;;;;;;;;;;;;;;19.41;52.98;100427.81;5159027;27;1905;-31
2021/09/19 09:41:47;;;;;;;;;;;;;;;19.43;52.87;100427.69;5159384;27;831;-39
2021/09/19 09:44:24;;;;;;;;;;;;;;;19.42;52.92;100433.97;5158848;27;816;-38
2021/09/19 09:46:50;;;;;;;;;;;;;;;19.29;53.34;100436.91;5158871;27;883;-41
2021/09/19 09:49:15;;;;;;;;;;;;;;;19.35;53.16;100431.03;5158267;27;1074;-39
2021/09/19 09:51:40;;;;;;;;;;;;;;;19.40;53.10;100419.97;5151627;27;1009;-37
2021/09/19 09:54:05;;;;;;;;;;;;;;;19.53;53.04;100430.34;5136865;27;897;-38
2021/09/19 09:56:31;;;;;;;;;;;;;;;19.49;53.09;100427.13;5138171;27;822;-38
2021/09/19 09:58:56;;;;;;;;;;;;;;;19.54;53.05;100437.34;5119781;27;1921;-33
2021/09/19 10:01:22;;;;;;;;;;;;;;;19.54;53.27;100435.53;5137798;27;829;-31
2021/09/19 10:03:47;;;;;;;;;;;;;;;19.58;53.28;100442.28;5119745;27;850;-40
2021/09/19 10:06:13;;;;;;;;;;;;;;;19.59;53.57;100435.13;5137260;27;1020;-42
2021/09/19 10:08:38;;;;;;;;;;;;;;;19.57;53.36;100421.91;5137947;27;774;-34
2021/09/19 10:11:06;;;;;;;;;;;;;;;19.64;53.00;100414.19;5119173;27;1419;-35
2021/09/19 10:13:31;;;;;;;;;;;;;;;19.68;52.94;100412.09;5137642;27;854;-30
2021/09/19 10:15:57;;;;;;;;;;;;;;;19.72;52.70;100418.81;5119075;27;786;-33
2021/09/19 10:18:22;;;;;;;;;;;;;;;19.87;52.48;100416.56;5119535;27;1902;-34
2021/09/19 10:20:48;;;;;;;;;;;;;;;19.78;52.59;100410.28;5118987;27;1620;-39
2021/09/19 10:23:16;;;;;;;;;;;;;;;19.77;52.56;100408.56;5135749;27;1480;-34
2021/09/19 10:25:58;;;;;;;;;;;;;;;19.79;52.50;100411.09;5137982;27;763;-41
2021/09/19 10:28:32;;;;;;;;;;;;;;;19.71;52.57;100403.81;5137056;27;771;-41
2021/09/19 10:31:11;;;;;;;;;;;;;;;19.72;52.95;100418.00;5137304;27;763;-34
2021/09/19 10:33:40;;;;;;;;;;;;;;;19.77;52.68;100405.91;5137714;27;771;-41
2021/09/19 10:36:20;;;;;;;;;;;;;;;19.90;52.52;100404.78;5136284;27;863;-36
2021/09/19 10:38:45;;;;;;;;;;;;;;;19.87;52.51;100400.53;5147014;27;1909;-41
2021/09/19 10:41:14;;;;;;;;;;;;;;;19.87;52.23;100392.53;5157600;27;747;-31
2021/09/19 10:43:52;;;;;;;;;;;;;;;19.87;52.34;100397.06;5157529;27;788;-41
2021/09/19 10:46:35;;;;;;;;;;;;;;;19.83;52.78;100393.81;5157835;27;839;-37
2021/09/19 10:49:14;;;;;;;;;;;;;;;20.03;52.00;100391.13;5158009;27;1181;-41
2021/09/19 10:51:58;;;;;;;;;;;;;;;19.96;52.08;100388.19;5149958;27;1032;-35
2021/09/19 10:54:41;;;;;;;;;;;;;;;19.81;52.54;100383.28;5137191;27;922;-36
2021/09/19 10:57:33;;;;;;;;;;;;;;;19.91;52.31;100385.09;5136916;27;806;-29
2021/09/19 11:00:07;;;;;;;;;;;;;;;19.67;52.60;100384.56;5124460;27;1918;-37
2021/09/19 11:02:32;;;;;;;;;;;;;;;19.70;52.98;100384.28;5136973;27;818;-34
2021/09/19 11:05:16;;;;;;;;;;;;;;;19.73;52.84;100382.31;5137015;27;817;-42
2021/09/19 11:07:42;;;;;;;;;;;;;;;19.71;52.54;100347.75;5135812;27;1021;-35
2021/09/19 11:10:12;;;;;;;;;;;;;;;19.72;53.27;100378.78;5137042;27;894;-30
2021/09/19 11:12:44;;;;;;;;;;;;;;;19.60;53.05;100385.28;5136544;27;755;-32
2021/09/19 11:15:16;;;;;;;;;;;;;;;19.62;53.72;100378.81;5136631;27;832;-33
2021/09/19 11:17:45;;;;;;;;;;;;;;;19.73;53.04;100374.31;5136916;27;1898;-42
2021/09/19 11:20:10;;;;;;;;;;;;;;;19.60;52.99;100379.94;5136264;27;740;-33
2021/09/19 11:22:36;;;;;;;;;;;;;;;19.48;53.42;100380.09;5135098;27;1809;-33
2021/09/19 11:25:05;;;;;;;;;;;;;;;19.49;53.61;100370.25;5118552;27;764;-31
2021/09/19 11:27:30;;;;;;;;;;;;;;;19.49;53.70;100368.41;5136127;27;839;-33
2021/09/19 11:29:56;;;;;;;;;;;;;;;19.48;53.74;100365.91;5136725;27;831;-41
2021/09/19 11:32:21;;;;;;;;;;;;;;;19.48;53.79;100371.22;5135718;27;874;-32
2021/09/19 11:34:46;;;;;;;;;;;;;;;19.52;53.71;100360.13;5136602;27;821;-41
2021/09/19 11:37:12;;;;;;;;;;;;;;;19.52;53.66;100365.47;5118230;28;946;-36
2021/09/19 11:39:38;;;;;;;;;;;;;;;19.55;53.67;100361.69;5154110;27;1909;-32
2021/09/19 11:42:08;;;;;;;;;;;;;;;19.51;53.54;100358.47;5157184;27;798;-41
2021/09/19 11:44:34;;;;;;;;;;;;;;;19.55;53.56;100345.69;5156314;27;843;-40
2021/09/19 11:47:01;;;;;;;;;;;;;;;19.51;53.90;100341.59;5156464;27;692;-39
2021/09/19 11:49:26;;;;;;;;;;;;;;;22.36;46.78;100352.47;5156693;27;1033;-33
2021/09/19 11:51:52;;;;;;;;;;;;;;;24.00;43.03;100340.47;5147457;27;1020;-41
2021/09/19 11:54:17;;;;;;;;;;;;;;;24.67;41.45;100349.13;5135787;28;830;-42
2021/09/19 11:56:43;;;;;;;;;;;;;;;25.14;40.24;100357.28;5136131;28;775;-37
2021/09/19 11:59:12;;;;;;;;;;;;;;;25.52;39.41;100353.81;5135641;28;1929;-42
2021/09/19 12:01:38;;;;;;;;;;;;;;;25.83;39.05;100351.19;5136216;28;766;-39
2021/09/19 12:04:07;;;;;;;;;;;;;;;26.08;38.46;100346.38;5136239;28;767;-34
2021/09/19 12:06:32;;;;;;;;;;;;;;;26.26;38.49;100346.00;5135602;28;974;-37
2021/09/19 12:08:58;;;;;;;;;;;;;;;26.48;38.10;100347.94;5136051;28;832;-39
2021/09/19 12:11:36;;;;;;;;;;;;;;;26.65;37.85;100340.47;5135871;28;797;-40
2021/09/19 12:14:02;;;;;;;;;;;;;;;26.75;37.75;100342.88;5135560;28;802;-35
2021/09/19 12:16:29;;;;;;;;;;;;;;;26.89;37.81;100344.69;5117267;28;1438;-35
2021/09/19 12:18:54;;;;;;;;;;;;;;;27.07;37.31;100332.66;5140184;27;1940;-38
2021/09/19 12:21:22;;;;;;;;;;;;;;;27.24;36.95;100324.28;5138343;27;1652;-34
2021/09/19 12:24:11;;;;;;;;;;;;;;;27.31;37.06;100332.44;5140131;27;787;-34
2021/09/19 12:26:36;;;;;;;;;;;;;;;26.90;37.09;100245.66;5137946;27;787;-37
2021/09/19 12:29:08;;;;;;;;;;;;;;;27.56;36.91;100323.91;5139378;27;768;-43
2021/09/19 12:31:37;;;;;;;;;;;;;;;27.67;36.98;100330.63;5140353;27;746;-37
2021/09/19 12:34:03;;;;;;;;;;;;;;;27.91;36.70;100323.94;5121140;27;1048;-41
2021/09/19 12:36:29;;;;;;;;;;;;;;;27.90;37.08;100316.88;5139053;27;938;-41
2021/09/19 12:38:54;;;;;;;;;;;;;;;27.97;37.30;100312.38;5150663;27;1909;-42
2021/09/19 12:41:19;;;;;;;;;;;;;;;28.02;37.05;100317.16;5160655;27;762;-38
2021/09/19 12:43:45;;;;;;;;;;;;;;;28.14;37.05;100309.31;5160059;27;743;-43
2021/09/19 12:46:11;;;;;;;;;;;;;;;28.20;36.71;100313.94;5159839;27;1054;-34
2021/09/19 12:48:36;;;;;;;;;;;;;;;28.30;37.03;100313.56;5160194;27;1283;-34